Main page
METAR-TAF:

METAR-TAF

Airports :

Resolute Bay Airport

Resolute, Nunavut, Canada

latitude: 74-43N, longitude: 094-59W, elevation: 67 m

Current weather observation

The report was made 31 minutes ago, at 22:00 UTC
Wind 15 kt from the Northwest
Temperature -37°C
Humidity 66%
Pressure 1015 hPa
Visibility: 16.1 km
Clear sky
ice crystals, Low drifting snow

METAR: CYRB 182200Z 31015KT 10SM IC DRSN SKC M37/M41 A2996 RMK SLP163

Time: 17:31 (22:31 UTC)

Forecast

The report was made 4 hours and 12 minutes ago, at 18:19 UTC
Forecast valid from 18 at 18 UTC to 19 at 18 UTC
Wind 14 kt from the North/Northwest
Visibility: 10 km
Clear sky
ice crystals
From 19 at 0600 UTC
Wind 14 kt from the North
Visibility: 10 km
Clear sky
ice crystals
Becoming
from 19 at 12 UTC to 19 at 14 UTC
Wind 5 kt from the West/Northwest

TAF: CYRB 181819Z 1818/1918 34014KT P6SM IC SKC FM190600 35014KT P6SM IC SKC BECMG 1912/1914 30005KT RMK NXT FCST BY 190000Z

Weather observations and forecasts of more than 4000 airports (METAR and TAF reports).

The available stations are represented by yellow and red dots on the map.

Hover mouse over dot to see the name of the station.

Then click to see weather observations and forecasts.

To change the map : click on the green buttons with a black cross to zoom in, on the green button with a dash to zoom out, or on the green arrows for adjacent maps.


METAR-TAF: